sensor_id;sensor_type;location;lat;lon;timestamp;P1;durP1;ratioP1;P2;durP2;ratioP2
16075;SDS011;8142;48.242;11.644;2022-07-17T00:00:48;6.00;;;2.77;;
16075;SDS011;8142;48.242;11.644;2022-07-17T00:03:14;4.67;;;2.73;;
16075;SDS011;8142;48.242;11.644;2022-07-17T00:05:42;6.00;;;3.03;;
16075;SDS011;8142;48.242;11.644;2022-07-17T00:08:08;3.87;;;2.87;;
16075;SDS011;8142;48.242;11.644;2022-07-17T00:10:36;4.67;;;2.50;;
16075;SDS011;8142;48.242;11.644;2022-07-17T00:13:03;3.40;;;2.53;;
16075;SDS011;8142;48.242;11.644;2022-07-17T00:15:29;4.60;;;2.70;;
16075;SDS011;8142;48.242;11.644;2022-07-17T00:17:55;4.90;;;2.60;;
16075;SDS011;8142;48.242;11.644;2022-07-17T00:20:21;4.53;;;2.77;;
16075;SDS011;8142;48.242;11.644;2022-07-17T00:22:53;7.60;;;3.00;;
16075;SDS011;8142;48.242;11.644;2022-07-17T00:25:23;4.17;;;2.70;;
16075;SDS011;8142;48.242;11.644;2022-07-17T00:27:49;3.43;;;2.70;;
16075;SDS011;8142;48.242;11.644;2022-07-17T00:30:16;4.87;;;2.77;;
16075;SDS011;8142;48.242;11.644;2022-07-17T00:32:42;3.90;;;2.90;;
16075;SDS011;8142;48.242;11.644;2022-07-17T00:35:08;4.30;;;2.63;;
16075;SDS011;8142;48.242;11.644;2022-07-17T00:37:44;2.53;;;2.30;;
16075;SDS011;8142;48.242;11.644;2022-07-17T00:40:12;2.60;;;2.40;;
16075;SDS011;8142;48.242;11.644;2022-07-17T00:42:41;6.13;;;2.80;;
16075;SDS011;8142;48.242;11.644;2022-07-17T00:45:08;4.50;;;3.00;;
16075;SDS011;8142;48.242;11.644;2022-07-17T00:47:43;5.33;;;2.63;;
16075;SDS011;8142;48.242;11.644;2022-07-17T00:50:16;5.00;;;2.63;;
16075;SDS011;8142;48.242;11.644;2022-07-17T00:52:42;5.03;;;3.00;;
16075;SDS011;8142;48.242;11.644;2022-07-17T00:55:08;5.63;;;2.80;;
16075;SDS011;8142;48.242;11.644;2022-07-17T00:57:35;5.17;;;2.70;;
16075;SDS011;8142;48.242;11.644;2022-07-17T01:00:04;4.23;;;2.77;;
16075;SDS011;8142;48.242;11.644;2022-07-17T01:02:34;3.73;;;2.97;;
16075;SDS011;8142;48.242;11.644;2022-07-17T01:05:00;3.83;;;2.63;;
16075;SDS011;8142;48.242;11.644;2022-07-17T01:07:27;4.73;;;3.40;;
16075;SDS011;8142;48.242;11.644;2022-07-17T01:09:53;5.40;;;3.40;;
16075;SDS011;8142;48.242;11.644;2022-07-17T01:12:19;7.10;;;3.60;;
16075;SDS011;8142;48.242;11.644;2022-07-17T01:14:45;6.67;;;4.10;;
16075;SDS011;8142;48.242;11.644;2022-07-17T01:17:11;6.03;;;3.20;;
16075;SDS011;8142;48.242;11.644;2022-07-17T01:19:37;4.97;;;3.40;;
16075;SDS011;8142;48.242;11.644;2022-07-17T01:22:03;5.17;;;3.30;;
16075;SDS011;8142;48.242;11.644;2022-07-17T01:24:29;5.33;;;3.30;;
16075;SDS011;8142;48.242;11.644;2022-07-17T01:26:55;4.50;;;3.07;;
16075;SDS011;8142;48.242;11.644;2022-07-17T01:29:21;6.17;;;3.30;;
16075;SDS011;8142;48.242;11.644;2022-07-17T01:31:46;4.87;;;3.23;;
16075;SDS011;8142;48.242;11.644;2022-07-17T01:34:13;5.53;;;3.10;;
16075;SDS011;8142;48.242;11.644;2022-07-17T01:36:39;6.60;;;3.07;;
16075;SDS011;8142;48.242;11.644;2022-07-17T01:39:06;4.10;;;3.27;;
16075;SDS011;8142;48.242;11.644;2022-07-17T01:41:32;6.33;;;3.43;;
16075;SDS011;8142;48.242;11.644;2022-07-17T01:43:58;5.00;;;3.73;;
16075;SDS011;8142;48.242;11.644;2022-07-17T01:46:24;3.87;;;3.27;;
16075;SDS011;8142;48.242;11.644;2022-07-17T01:48:50;5.27;;;3.10;;
16075;SDS011;8142;48.242;11.644;2022-07-17T01:51:16;5.07;;;3.00;;
16075;SDS011;8142;48.242;11.644;2022-07-17T01:53:42;3.93;;;3.00;;
16075;SDS011;8142;48.242;11.644;2022-07-17T01:56:08;5.90;;;3.40;;
16075;SDS011;8142;48.242;11.644;2022-07-17T01:58:34;6.27;;;3.90;;
16075;SDS011;8142;48.242;11.644;2022-07-17T02:01:00;6.73;;;3.97;;
16075;SDS011;8142;48.242;11.644;2022-07-17T02:03:26;6.33;;;3.83;;
16075;SDS011;8142;48.242;11.644;2022-07-17T02:05:51;5.97;;;3.73;;
16075;SDS011;8142;48.242;11.644;2022-07-17T02:08:17;7.13;;;4.43;;
16075;SDS011;8142;48.242;11.644;2022-07-17T02:10:43;5.97;;;3.70;;
16075;SDS011;8142;48.242;11.644;2022-07-17T02:13:09;5.23;;;3.97;;
16075;SDS011;8142;48.242;11.644;2022-07-17T02:15:35;7.30;;;3.77;;
16075;SDS011;8142;48.242;11.644;2022-07-17T02:18:01;5.83;;;3.80;;
16075;SDS011;8142;48.242;11.644;2022-07-17T02:20:26;4.37;;;3.80;;
16075;SDS011;8142;48.242;11.644;2022-07-17T02:22:52;4.63;;;3.50;;
16075;SDS011;8142;48.242;11.644;2022-07-17T02:25:18;3.80;;;3.23;;
16075;SDS011;8142;48.242;11.644;2022-07-17T02:27:44;5.07;;;3.63;;
16075;SDS011;8142;48.242;11.644;2022-07-17T02:30:13;4.03;;;3.37;;
16075;SDS011;8142;48.242;11.644;2022-07-17T02:32:41;4.50;;;3.40;;
16075;SDS011;8142;48.242;11.644;2022-07-17T02:35:08;4.00;;;3.30;;
16075;SDS011;8142;48.242;11.644;2022-07-17T02:37:35;5.50;;;3.60;;
16075;SDS011;8142;48.242;11.644;2022-07-17T02:40:02;4.53;;;3.30;;
16075;SDS011;8142;48.242;11.644;2022-07-17T02:42:30;5.17;;;3.50;;
16075;SDS011;8142;48.242;11.644;2022-07-17T02:44:57;4.13;;;3.10;;
16075;SDS011;8142;48.242;11.644;2022-07-17T02:47:24;4.13;;;3.33;;
16075;SDS011;8142;48.242;11.644;2022-07-17T02:49:52;5.07;;;3.50;;
16075;SDS011;8142;48.242;11.644;2022-07-17T02:52:18;4.47;;;3.60;;
16075;SDS011;8142;48.242;11.644;2022-07-17T02:54:44;6.47;;;3.50;;
16075;SDS011;8142;48.242;11.644;2022-07-17T02:57:11;3.70;;;3.37;;
16075;SDS011;8142;48.242;11.644;2022-07-17T02:59:37;4.30;;;3.43;;
16075;SDS011;8142;48.242;11.644;2022-07-17T03:02:04;5.47;;;3.50;;
16075;SDS011;8142;48.242;11.644;2022-07-17T03:04:29;3.97;;;2.97;;
16075;SDS011;8142;48.242;11.644;2022-07-17T03:06:55;4.97;;;3.50;;
16075;SDS011;8142;48.242;11.644;2022-07-17T03:09:21;4.73;;;3.30;;
16075;SDS011;8142;48.242;11.644;2022-07-17T03:11:47;5.27;;;3.40;;
16075;SDS011;8142;48.242;11.644;2022-07-17T03:14:13;4.23;;;3.43;;
16075;SDS011;8142;48.242;11.644;2022-07-17T03:16:39;5.87;;;3.60;;
16075;SDS011;8142;48.242;11.644;2022-07-17T03:19:04;6.40;;;3.27;;
16075;SDS011;8142;48.242;11.644;2022-07-17T03:21:30;3.97;;;3.20;;
16075;SDS011;8142;48.242;11.644;2022-07-17T03:23:56;3.97;;;3.47;;
16075;SDS011;8142;48.242;11.644;2022-07-17T03:26:22;3.60;;;3.30;;
16075;SDS011;8142;48.242;11.644;2022-07-17T03:28:48;4.27;;;3.23;;
16075;SDS011;8142;48.242;11.644;2022-07-17T03:31:14;5.90;;;3.40;;
16075;SDS011;8142;48.242;11.644;2022-07-17T03:33:40;4.13;;;3.00;;
16075;SDS011;8142;48.242;11.644;2022-07-17T03:36:06;5.73;;;3.27;;
16075;SDS011;8142;48.242;11.644;2022-07-17T03:38:32;5.70;;;3.70;;
16075;SDS011;8142;48.242;11.644;2022-07-17T03:40:58;5.43;;;3.77;;
16075;SDS011;8142;48.242;11.644;2022-07-17T03:43:24;6.10;;;3.87;;
16075;SDS011;8142;48.242;11.644;2022-07-17T03:45:50;5.53;;;3.97;;
16075;SDS011;8142;48.242;11.644;2022-07-17T03:48:16;5.73;;;3.80;;
16075;SDS011;8142;48.242;11.644;2022-07-17T03:50:43;4.20;;;3.53;;
16075;SDS011;8142;48.242;11.644;2022-07-17T03:53:09;4.83;;;3.77;;
16075;SDS011;8142;48.242;11.644;2022-07-17T03:55:35;6.30;;;4.10;;
16075;SDS011;8142;48.242;11.644;2022-07-17T03:58:01;5.67;;;3.87;;
16075;SDS011;8142;48.242;11.644;2022-07-17T04:00:27;4.70;;;3.70;;
16075;SDS011;8142;48.242;11.644;2022-07-17T04:02:53;8.13;;;3.90;;
16075;SDS011;8142;48.242;11.644;2022-07-17T04:05:19;6.03;;;3.70;;
16075;SDS011;8142;48.242;11.644;2022-07-17T04:07:45;4.80;;;3.63;;
16075;SDS011;8142;48.242;11.644;2022-07-17T04:10:12;5.13;;;3.47;;
16075;SDS011;8142;48.242;11.644;2022-07-17T04:12:39;6.00;;;3.63;;
16075;SDS011;8142;48.242;11.644;2022-07-17T04:15:06;4.13;;;3.60;;
16075;SDS011;8142;48.242;11.644;2022-07-17T04:17:33;5.37;;;3.90;;
16075;SDS011;8142;48.242;11.644;2022-07-17T04:19:58;6.60;;;4.30;;
16075;SDS011;8142;48.242;11.644;2022-07-17T04:22:24;5.63;;;3.90;;
16075;SDS011;8142;48.242;11.644;2022-07-17T04:24:50;4.60;;;3.57;;
16075;SDS011;8142;48.242;11.644;2022-07-17T04:27:18;5.47;;;4.23;;
16075;SDS011;8142;48.242;11.644;2022-07-17T04:29:44;5.13;;;4.10;;
16075;SDS011;8142;48.242;11.644;2022-07-17T04:32:10;7.20;;;4.10;;
16075;SDS011;8142;48.242;11.644;2022-07-17T04:34:36;5.40;;;3.93;;
16075;SDS011;8142;48.242;11.644;2022-07-17T04:37:02;4.83;;;4.30;;
16075;SDS011;8142;48.242;11.644;2022-07-17T04:39:29;8.53;;;5.07;;
16075;SDS011;8142;48.242;11.644;2022-07-17T04:41:55;5.50;;;4.90;;
16075;SDS011;8142;48.242;11.644;2022-07-17T04:44:21;6.67;;;4.80;;
16075;SDS011;8142;48.242;11.644;2022-07-17T04:46:47;7.00;;;4.90;;
16075;SDS011;8142;48.242;11.644;2022-07-17T04:49:13;7.20;;;4.90;;
16075;SDS011;8142;48.242;11.644;2022-07-17T04:51:39;5.50;;;4.50;;
16075;SDS011;8142;48.242;11.644;2022-07-17T04:54:05;5.70;;;4.67;;
16075;SDS011;8142;48.242;11.644;2022-07-17T04:56:31;6.23;;;4.83;;
16075;SDS011;8142;48.242;11.644;2022-07-17T04:58:57;6.10;;;4.70;;
16075;SDS011;8142;48.242;11.644;2022-07-17T05:01:22;6.20;;;4.53;;
16075;SDS011;8142;48.242;11.644;2022-07-17T05:03:48;5.53;;;4.60;;
16075;SDS011;8142;48.242;11.644;2022-07-17T05:06:14;6.37;;;4.57;;
16075;SDS011;8142;48.242;11.644;2022-07-17T05:08:40;6.37;;;4.60;;
16075;SDS011;8142;48.242;11.644;2022-07-17T05:11:06;6.57;;;4.40;;
16075;SDS011;8142;48.242;11.644;2022-07-17T05:13:32;5.43;;;4.43;;
16075;SDS011;8142;48.242;11.644;2022-07-17T05:15:59;5.97;;;4.57;;
16075;SDS011;8142;48.242;11.644;2022-07-17T05:18:25;5.20;;;4.30;;
16075;SDS011;8142;48.242;11.644;2022-07-17T05:20:51;4.77;;;4.27;;
16075;SDS011;8142;48.242;11.644;2022-07-17T05:23:17;5.97;;;4.40;;
16075;SDS011;8142;48.242;11.644;2022-07-17T05:25:43;4.90;;;3.73;;
16075;SDS011;8142;48.242;11.644;2022-07-17T05:28:09;8.50;;;4.80;;
16075;SDS011;8142;48.242;11.644;2022-07-17T05:30:35;6.17;;;4.50;;
16075;SDS011;8142;48.242;11.644;2022-07-17T05:33:00;6.57;;;4.20;;
16075;SDS011;8142;48.242;11.644;2022-07-17T05:35:26;6.17;;;4.30;;
16075;SDS011;8142;48.242;11.644;2022-07-17T05:37:52;5.37;;;3.93;;
16075;SDS011;8142;48.242;11.644;2022-07-17T05:40:18;4.70;;;4.17;;
16075;SDS011;8142;48.242;11.644;2022-07-17T05:42:44;7.47;;;4.20;;
16075;SDS011;8142;48.242;11.644;2022-07-17T05:45:10;5.97;;;4.03;;
16075;SDS011;8142;48.242;11.644;2022-07-17T05:47:36;6.23;;;3.60;;
16075;SDS011;8142;48.242;11.644;2022-07-17T05:50:01;7.10;;;3.80;;
16075;SDS011;8142;48.242;11.644;2022-07-17T05:52:28;6.20;;;3.60;;
16075;SDS011;8142;48.242;11.644;2022-07-17T05:54:54;5.47;;;3.60;;
16075;SDS011;8142;48.242;11.644;2022-07-17T05:57:19;4.43;;;3.40;;
16075;SDS011;8142;48.242;11.644;2022-07-17T05:59:45;3.70;;;3.23;;
16075;SDS011;8142;48.242;11.644;2022-07-17T06:02:11;6.33;;;2.90;;
16075;SDS011;8142;48.242;11.644;2022-07-17T06:04:37;4.10;;;2.80;;
16075;SDS011;8142;48.242;11.644;2022-07-17T06:07:05;6.20;;;3.00;;
16075;SDS011;8142;48.242;11.644;2022-07-17T06:09:31;3.57;;;2.83;;
16075;SDS011;8142;48.242;11.644;2022-07-17T06:11:57;3.40;;;3.00;;
16075;SDS011;8142;48.242;11.644;2022-07-17T06:14:23;4.03;;;2.90;;
16075;SDS011;8142;48.242;11.644;2022-07-17T06:16:50;4.40;;;2.90;;
16075;SDS011;8142;48.242;11.644;2022-07-17T06:19:16;5.77;;;3.13;;
16075;SDS011;8142;48.242;11.644;2022-07-17T06:21:42;3.87;;;3.13;;
16075;SDS011;8142;48.242;11.644;2022-07-17T06:24:08;3.60;;;3.10;;
16075;SDS011;8142;48.242;11.644;2022-07-17T06:26:34;6.80;;;3.00;;
16075;SDS011;8142;48.242;11.644;2022-07-17T06:29:00;4.67;;;3.00;;
16075;SDS011;8142;48.242;11.644;2022-07-17T06:31:25;3.13;;;2.80;;
16075;SDS011;8142;48.242;11.644;2022-07-17T06:33:51;3.73;;;2.90;;
16075;SDS011;8142;48.242;11.644;2022-07-17T06:36:17;3.90;;;2.80;;
16075;SDS011;8142;48.242;11.644;2022-07-17T06:38:43;3.43;;;2.80;;
16075;SDS011;8142;48.242;11.644;2022-07-17T06:41:09;3.00;;;2.50;;
16075;SDS011;8142;48.242;11.644;2022-07-17T06:43:35;4.83;;;2.53;;
16075;SDS011;8142;48.242;11.644;2022-07-17T06:46:00;4.57;;;2.60;;
16075;SDS011;8142;48.242;11.644;2022-07-17T06:48:27;5.50;;;2.80;;
16075;SDS011;8142;48.242;11.644;2022-07-17T06:50:53;3.37;;;2.70;;
16075;SDS011;8142;48.242;11.644;2022-07-17T06:53:18;3.00;;;2.50;;
16075;SDS011;8142;48.242;11.644;2022-07-17T06:55:44;4.13;;;2.60;;
16075;SDS011;8142;48.242;11.644;2022-07-17T06:58:10;4.03;;;2.43;;
16075;SDS011;8142;48.242;11.644;2022-07-17T07:00:37;3.63;;;2.37;;
16075;SDS011;8142;48.242;11.644;2022-07-17T07:03:03;2.53;;;2.13;;
16075;SDS011;8142;48.242;11.644;2022-07-17T07:05:29;2.67;;;2.47;;
16075;SDS011;8142;48.242;11.644;2022-07-17T07:07:55;3.27;;;2.40;;
16075;SDS011;8142;48.242;11.644;2022-07-17T07:10:21;3.83;;;2.20;;
16075;SDS011;8142;48.242;11.644;2022-07-17T07:12:47;3.47;;;2.30;;
16075;SDS011;8142;48.242;11.644;2022-07-17T07:15:13;2.43;;;2.20;;
16075;SDS011;8142;48.242;11.644;2022-07-17T07:17:39;2.53;;;2.30;;
16075;SDS011;8142;48.242;11.644;2022-07-17T07:20:06;3.17;;;2.47;;
16075;SDS011;8142;48.242;11.644;2022-07-17T07:22:33;3.13;;;2.07;;
16075;SDS011;8142;48.242;11.644;2022-07-17T07:24:59;2.93;;;2.27;;
16075;SDS011;8142;48.242;11.644;2022-07-17T07:27:25;4.50;;;2.33;;
16075;SDS011;8142;48.242;11.644;2022-07-17T07:29:51;3.37;;;2.00;;
16075;SDS011;8142;48.242;11.644;2022-07-17T07:32:17;2.47;;;2.17;;
16075;SDS011;8142;48.242;11.644;2022-07-17T07:34:43;4.73;;;2.40;;
16075;SDS011;8142;48.242;11.644;2022-07-17T07:37:08;2.13;;;1.90;;
16075;SDS011;8142;48.242;11.644;2022-07-17T07:39:34;4.73;;;2.10;;
16075;SDS011;8142;48.242;11.644;2022-07-17T07:42:00;2.73;;;2.07;;
16075;SDS011;8142;48.242;11.644;2022-07-17T07:44:26;3.07;;;2.30;;
16075;SDS011;8142;48.242;11.644;2022-07-17T07:46:52;3.13;;;2.30;;
16075;SDS011;8142;48.242;11.644;2022-07-17T07:49:18;3.53;;;2.20;;
16075;SDS011;8142;48.242;11.644;2022-07-17T07:51:44;3.13;;;1.97;;
16075;SDS011;8142;48.242;11.644;2022-07-17T07:54:09;1.73;;;1.63;;
16075;SDS011;8142;48.242;11.644;2022-07-17T07:56:35;3.17;;;1.80;;
16075;SDS011;8142;48.242;11.644;2022-07-17T07:59:02;4.30;;;2.00;;
16075;SDS011;8142;48.242;11.644;2022-07-17T08:01:28;2.60;;;2.03;;
16075;SDS011;8142;48.242;11.644;2022-07-17T08:03:54;4.87;;;3.13;;
16075;SDS011;8142;48.242;11.644;2022-07-17T08:06:21;3.10;;;2.37;;
16075;SDS011;8142;48.242;11.644;2022-07-17T08:08:47;2.73;;;1.93;;
16075;SDS011;8142;48.242;11.644;2022-07-17T08:11:13;2.20;;;2.00;;
16075;SDS011;8142;48.242;11.644;2022-07-17T08:13:40;2.43;;;1.87;;
16075;SDS011;8142;48.242;11.644;2022-07-17T08:16:06;1.93;;;1.80;;
16075;SDS011;8142;48.242;11.644;2022-07-17T08:18:32;2.27;;;2.07;;
16075;SDS011;8142;48.242;11.644;2022-07-17T08:20:59;3.30;;;2.00;;
16075;SDS011;8142;48.242;11.644;2022-07-17T08:23:25;2.50;;;2.00;;
16075;SDS011;8142;48.242;11.644;2022-07-17T08:25:51;2.47;;;1.97;;
16075;SDS011;8142;48.242;11.644;2022-07-17T08:28:17;2.43;;;1.90;;
16075;SDS011;8142;48.242;11.644;2022-07-17T08:30:43;2.67;;;1.87;;
16075;SDS011;8142;48.242;11.644;2022-07-17T08:33:09;3.93;;;2.20;;
16075;SDS011;8142;48.242;11.644;2022-07-17T08:35:35;2.77;;;2.03;;
16075;SDS011;8142;48.242;11.644;2022-07-17T08:38:02;3.10;;;2.10;;
16075;SDS011;8142;48.242;11.644;2022-07-17T08:40:30;2.30;;;2.07;;
16075;SDS011;8142;48.242;11.644;2022-07-17T08:43:00;2.23;;;1.80;;
16075;SDS011;8142;48.242;11.644;2022-07-17T08:45:28;1.70;;;1.60;;
16075;SDS011;8142;48.242;11.644;2022-07-17T08:47:55;1.83;;;1.60;;
16075;SDS011;8142;48.242;11.644;2022-07-17T08:50:26;2.83;;;2.10;;
16075;SDS011;8142;48.242;11.644;2022-07-17T08:52:56;3.67;;;1.90;;
16075;SDS011;8142;48.242;11.644;2022-07-17T08:55:22;2.17;;;1.90;;
16075;SDS011;8142;48.242;11.644;2022-07-17T08:57:49;4.10;;;2.10;;
16075;SDS011;8142;48.242;11.644;2022-07-17T09:00:16;4.10;;;2.10;;
16075;SDS011;8142;48.242;11.644;2022-07-17T09:03:00;3.53;;;2.07;;
16075;SDS011;8142;48.242;11.644;2022-07-17T09:05:32;2.23;;;1.93;;
16075;SDS011;8142;48.242;11.644;2022-07-17T09:08:00;3.33;;;2.00;;
16075;SDS011;8142;48.242;11.644;2022-07-17T09:10:33;2.40;;;2.20;;
16075;SDS011;8142;48.242;11.644;2022-07-17T09:15:49;2.87;;;1.90;;
16075;SDS011;8142;48.242;11.644;2022-07-17T09:18:17;2.10;;;1.90;;
16075;SDS011;8142;48.242;11.644;2022-07-17T09:20:45;3.80;;;2.00;;
16075;SDS011;8142;48.242;11.644;2022-07-17T09:23:11;3.00;;;2.00;;
16075;SDS011;8142;48.242;11.644;2022-07-17T09:25:42;5.23;;;1.80;;
16075;SDS011;8142;48.242;11.644;2022-07-17T09:28:10;3.90;;;2.00;;
16075;SDS011;8142;48.242;11.644;2022-07-17T09:30:43;3.03;;;1.93;;
16075;SDS011;8142;48.242;11.644;2022-07-17T09:33:15;1.80;;;1.70;;
16075;SDS011;8142;48.242;11.644;2022-07-17T09:38:29;3.47;;;2.07;;
16075;SDS011;8142;48.242;11.644;2022-07-17T09:46:22;3.27;;;2.00;;
16075;SDS011;8142;48.242;11.644;2022-07-17T09:48:54;2.10;;;1.90;;
16075;SDS011;8142;48.242;11.644;2022-07-17T09:51:22;3.60;;;2.10;;
16075;SDS011;8142;48.242;11.644;2022-07-17T09:54:20;1.90;;;1.80;;
16075;SDS011;8142;48.242;11.644;2022-07-17T09:56:47;2.97;;;2.03;;
16075;SDS011;8142;48.242;11.644;2022-07-17T09:59:16;6.13;;;2.13;;
16075;SDS011;8142;48.242;11.644;2022-07-17T10:01:43;3.90;;;2.23;;
16075;SDS011;8142;48.242;11.644;2022-07-17T10:04:14;2.83;;;2.00;;
16075;SDS011;8142;48.242;11.644;2022-07-17T10:06:43;2.50;;;1.80;;
16075;SDS011;8142;48.242;11.644;2022-07-17T10:09:09;2.17;;;1.90;;
16075;SDS011;8142;48.242;11.644;2022-07-17T10:11:39;3.20;;;2.00;;
16075;SDS011;8142;48.242;11.644;2022-07-17T10:14:10;2.00;;;1.80;;
16075;SDS011;8142;48.242;11.644;2022-07-17T10:16:37;3.80;;;1.83;;
16075;SDS011;8142;48.242;11.644;2022-07-17T10:21:51;1.70;;;1.60;;
16075;SDS011;8142;48.242;11.644;2022-07-17T10:24:22;1.70;;;1.60;;
16075;SDS011;8142;48.242;11.644;2022-07-17T10:26:49;2.70;;;1.70;;
16075;SDS011;8142;48.242;11.644;2022-07-17T10:32:07;2.57;;;1.80;;
16075;SDS011;8142;48.242;11.644;2022-07-17T10:34:40;2.10;;;1.77;;
16075;SDS011;8142;48.242;11.644;2022-07-17T10:37:15;2.00;;;1.80;;
16075;SDS011;8142;48.242;11.644;2022-07-17T10:42:38;3.33;;;1.70;;
16075;SDS011;8142;48.242;11.644;2022-07-17T10:45:17;1.87;;;1.70;;
16075;SDS011;8142;48.242;11.644;2022-07-17T10:47:52;4.10;;;2.00;;
16075;SDS011;8142;48.242;11.644;2022-07-17T10:50:33;3.13;;;1.90;;
16075;SDS011;8142;48.242;11.644;2022-07-17T10:53:05;2.80;;;1.87;;
16075;SDS011;8142;48.242;11.644;2022-07-17T10:55:32;2.37;;;1.83;;
16075;SDS011;8142;48.242;11.644;2022-07-17T10:58:03;2.50;;;1.70;;
16075;SDS011;8142;48.242;11.644;2022-07-17T11:00:38;1.60;;;1.50;;
16075;SDS011;8142;48.242;11.644;2022-07-17T11:03:11;6.37;;;2.00;;
16075;SDS011;8142;48.242;11.644;2022-07-17T11:05:38;2.83;;;2.10;;
16075;SDS011;8142;48.242;11.644;2022-07-17T11:08:04;2.33;;;1.80;;
16075;SDS011;8142;48.242;11.644;2022-07-17T11:10:35;2.40;;;2.00;;
16075;SDS011;8142;48.242;11.644;2022-07-17T11:13:09;2.27;;;2.00;;
16075;SDS011;8142;48.242;11.644;2022-07-17T11:15:40;2.50;;;1.57;;
16075;SDS011;8142;48.242;11.644;2022-07-17T11:18:09;3.20;;;1.70;;
16075;SDS011;8142;48.242;11.644;2022-07-17T11:23:23;2.00;;;1.83;;
16075;SDS011;8142;48.242;11.644;2022-07-17T11:25:58;4.37;;;1.80;;
16075;SDS011;8142;48.242;11.644;2022-07-17T11:28:28;2.27;;;1.60;;
16075;SDS011;8142;48.242;11.644;2022-07-17T11:30:56;2.93;;;1.90;;
16075;SDS011;8142;48.242;11.644;2022-07-17T11:33:22;4.03;;;1.83;;
16075;SDS011;8142;48.242;11.644;2022-07-17T11:35:48;3.37;;;2.03;;
16075;SDS011;8142;48.242;11.644;2022-07-17T11:38:23;2.30;;;1.80;;
16075;SDS011;8142;48.242;11.644;2022-07-17T11:40:56;2.00;;;1.60;;
16075;SDS011;8142;48.242;11.644;2022-07-17T11:43:22;3.77;;;2.10;;
16075;SDS011;8142;48.242;11.644;2022-07-17T11:45:49;1.80;;;1.63;;
16075;SDS011;8142;48.242;11.644;2022-07-17T11:48:15;1.90;;;1.77;;
16075;SDS011;8142;48.242;11.644;2022-07-17T11:50:53;3.60;;;1.70;;
16075;SDS011;8142;48.242;11.644;2022-07-17T11:53:29;1.87;;;1.60;;
16075;SDS011;8142;48.242;11.644;2022-07-17T11:55:57;1.93;;;1.70;;
16075;SDS011;8142;48.242;11.644;2022-07-17T11:58:22;1.77;;;1.63;;
16075;SDS011;8142;48.242;11.644;2022-07-17T12:00:48;1.73;;;1.60;;
16075;SDS011;8142;48.242;11.644;2022-07-17T12:03:26;1.97;;;1.57;;
16075;SDS011;8142;48.242;11.644;2022-07-17T12:05:52;1.83;;;1.50;;
16075;SDS011;8142;48.242;11.644;2022-07-17T12:08:18;1.70;;;1.60;;
16075;SDS011;8142;48.242;11.644;2022-07-17T12:10:47;1.77;;;1.60;;
16075;SDS011;8142;48.242;11.644;2022-07-17T12:13:24;2.10;;;1.70;;
16075;SDS011;8142;48.242;11.644;2022-07-17T12:18:57;1.70;;;1.57;;
16075;SDS011;8142;48.242;11.644;2022-07-17T12:21:30;1.90;;;1.80;;
16075;SDS011;8142;48.242;11.644;2022-07-17T12:24:01;2.07;;;1.87;;
16075;SDS011;8142;48.242;11.644;2022-07-17T12:26:31;2.47;;;1.87;;
16075;SDS011;8142;48.242;11.644;2022-07-17T12:28:58;2.03;;;1.70;;
16075;SDS011;8142;48.242;11.644;2022-07-17T12:31:25;2.00;;;1.80;;
16075;SDS011;8142;48.242;11.644;2022-07-17T12:33:52;2.93;;;1.80;;
16075;SDS011;8142;48.242;11.644;2022-07-17T12:36:19;2.27;;;1.80;;
16075;SDS011;8142;48.242;11.644;2022-07-17T12:38:48;1.97;;;1.87;;
16075;SDS011;8142;48.242;11.644;2022-07-17T12:41:15;2.00;;;1.80;;
16075;SDS011;8142;48.242;11.644;2022-07-17T12:43:41;3.00;;;1.87;;
16075;SDS011;8142;48.242;11.644;2022-07-17T12:46:07;2.30;;;1.80;;
16075;SDS011;8142;48.242;11.644;2022-07-17T12:48:33;1.90;;;1.80;;
16075;SDS011;8142;48.242;11.644;2022-07-17T12:51:00;2.60;;;1.50;;
16075;SDS011;8142;48.242;11.644;2022-07-17T12:53:26;6.07;;;2.10;;
16075;SDS011;8142;48.242;11.644;2022-07-17T12:55:52;2.20;;;1.80;;
16075;SDS011;8142;48.242;11.644;2022-07-17T12:58:18;3.00;;;1.67;;
16075;SDS011;8142;48.242;11.644;2022-07-17T13:00:44;3.57;;;1.70;;
16075;SDS011;8142;48.242;11.644;2022-07-17T13:03:10;2.47;;;1.60;;
16075;SDS011;8142;48.242;11.644;2022-07-17T13:05:36;1.60;;;1.50;;
16075;SDS011;8142;48.242;11.644;2022-07-17T13:08:03;1.77;;;1.67;;
16075;SDS011;8142;48.242;11.644;2022-07-17T13:10:29;1.60;;;1.37;;
16075;SDS011;8142;48.242;11.644;2022-07-17T13:12:55;1.50;;;1.40;;
16075;SDS011;8142;48.242;11.644;2022-07-17T13:15:20;1.67;;;1.57;;
16075;SDS011;8142;48.242;11.644;2022-07-17T13:17:46;1.57;;;1.40;;
16075;SDS011;8142;48.242;11.644;2022-07-17T13:20:12;4.10;;;1.40;;
16075;SDS011;8142;48.242;11.644;2022-07-17T13:22:38;2.17;;;1.70;;
16075;SDS011;8142;48.242;11.644;2022-07-17T13:25:04;1.70;;;1.60;;
16075;SDS011;8142;48.242;11.644;2022-07-17T13:27:30;3.40;;;1.50;;
16075;SDS011;8142;48.242;11.644;2022-07-17T13:29:56;1.47;;;1.37;;
16075;SDS011;8142;48.242;11.644;2022-07-17T13:32:22;1.50;;;1.40;;
16075;SDS011;8142;48.242;11.644;2022-07-17T13:34:48;1.30;;;1.20;;
16075;SDS011;8142;48.242;11.644;2022-07-17T13:37:14;1.53;;;1.43;;
16075;SDS011;8142;48.242;11.644;2022-07-17T13:39:40;1.43;;;1.33;;
16075;SDS011;8142;48.242;11.644;2022-07-17T13:42:05;1.70;;;1.60;;
16075;SDS011;8142;48.242;11.644;2022-07-17T13:44:31;1.50;;;1.40;;
16075;SDS011;8142;48.242;11.644;2022-07-17T13:46:57;1.83;;;1.67;;
16075;SDS011;8142;48.242;11.644;2022-07-17T13:49:24;2.73;;;1.57;;
16075;SDS011;8142;48.242;11.644;2022-07-17T13:51:50;1.83;;;1.50;;
16075;SDS011;8142;48.242;11.644;2022-07-17T13:54:15;1.60;;;1.50;;
16075;SDS011;8142;48.242;11.644;2022-07-17T13:56:41;3.37;;;1.60;;
16075;SDS011;8142;48.242;11.644;2022-07-17T13:59:07;3.20;;;1.70;;
16075;SDS011;8142;48.242;11.644;2022-07-17T14:01:33;3.03;;;1.73;;
16075;SDS011;8142;48.242;11.644;2022-07-17T14:04:02;2.10;;;1.90;;
16075;SDS011;8142;48.242;11.644;2022-07-17T14:06:28;2.83;;;1.97;;
16075;SDS011;8142;48.242;11.644;2022-07-17T14:08:54;4.17;;;1.67;;
16075;SDS011;8142;48.242;11.644;2022-07-17T14:11:20;1.57;;;1.47;;
16075;SDS011;8142;48.242;11.644;2022-07-17T14:13:46;4.33;;;1.73;;
16075;SDS011;8142;48.242;11.644;2022-07-17T14:16:12;3.20;;;1.70;;
16075;SDS011;8142;48.242;11.644;2022-07-17T14:18:38;2.33;;;1.60;;
16075;SDS011;8142;48.242;11.644;2022-07-17T14:21:24;1.70;;;1.60;;
16075;SDS011;8142;48.242;11.644;2022-07-17T14:23:54;2.50;;;1.73;;
16075;SDS011;8142;48.242;11.644;2022-07-17T14:26:20;1.60;;;1.50;;
16075;SDS011;8142;48.242;11.644;2022-07-17T14:28:46;1.63;;;1.50;;
16075;SDS011;8142;48.242;11.644;2022-07-17T14:31:12;2.43;;;1.90;;
16075;SDS011;8142;48.242;11.644;2022-07-17T14:33:38;2.10;;;1.67;;
16075;SDS011;8142;48.242;11.644;2022-07-17T14:36:04;1.80;;;1.70;;
16075;SDS011;8142;48.242;11.644;2022-07-17T14:38:30;1.83;;;1.70;;
16075;SDS011;8142;48.242;11.644;2022-07-17T14:40:57;2.50;;;1.70;;
16075;SDS011;8142;48.242;11.644;2022-07-17T14:43:23;2.23;;;1.60;;
16075;SDS011;8142;48.242;11.644;2022-07-17T14:45:49;2.67;;;1.60;;
16075;SDS011;8142;48.242;11.644;2022-07-17T14:48:15;2.00;;;1.80;;
16075;SDS011;8142;48.242;11.644;2022-07-17T14:50:41;1.60;;;1.50;;
16075;SDS011;8142;48.242;11.644;2022-07-17T14:53:07;1.63;;;1.50;;
16075;SDS011;8142;48.242;11.644;2022-07-17T14:55:33;1.93;;;1.60;;
16075;SDS011;8142;48.242;11.644;2022-07-17T14:57:59;1.97;;;1.80;;
16075;SDS011;8142;48.242;11.644;2022-07-17T15:00:25;3.60;;;1.80;;
16075;SDS011;8142;48.242;11.644;2022-07-17T15:02:51;2.00;;;1.53;;
16075;SDS011;8142;48.242;11.644;2022-07-17T15:05:17;1.63;;;1.50;;
16075;SDS011;8142;48.242;11.644;2022-07-17T15:07:43;1.60;;;1.50;;
16075;SDS011;8142;48.242;11.644;2022-07-17T15:10:09;3.43;;;1.60;;
16075;SDS011;8142;48.242;11.644;2022-07-17T15:12:35;2.37;;;1.60;;